Data for 03/01/2005

Time Sea-Level Adjusted Pressure Absolute Pressure Temperature Relative Humidity Dew Point   
(mb) (inHg) (mb) (inHg) (C) (F) (%) (C) (F)
00:05 1015 29.97 844 24.92 0.3 32.5 51 -8.7 16.4
00:10 1015 29.97 844 24.92 0.4 32.8 48 -9.4 15.1
00:15 1015 29.97 844 24.92 0.7 33.3 47 -9.4 15.1
00:20 1015 29.97 844 24.92 0.8 33.4 47 -9.3 15.3
00:25 1015 29.97 845 24.95 0.8 33.5 47 -9.2 15.4
00:30 1015 29.97 845 24.95 0.9 33.6 48 -9 15.8
00:35 1015 29.97 845 24.95 0.9 33.6 49 -8.8 16.2
00:40 1015 29.97 845 24.95 0.6 33.1 49 -8.9 16
00:45 1015 29.97 845 24.95 0.5 33 50 -8.8 16.2
00:50 1015 29.97 845 24.95 0.7 33.3 48 -9.1 15.5
00:55 1016 30 845 24.95 0.4 32.7 51 -8.6 16.5
01:00 1016 30 845 24.95 0.6 33.1 47 -9.5 14.8
01:05 1016 30 845 24.95 0.9 33.6 49 -8.7 16.4
01:10 1016 30 845 24.95 0.7 33.3 47 -9.4 15.2
01:15 1016 30 845 24.95 0.7 33.3 49 -8.8 16.1
01:20 1016 30 845 24.95 0.4 32.7 50 -9 15.9
01:25 1016 30 845 24.95 0.5 32.9 49 -9.1 15.6
01:30 1016 30 845 24.95 0.3 32.5 51 -8.7 16.4
01:35 1016 30 845 24.95 0.4 32.6 50 -9 15.8
01:40 1016 30 845 24.95 0.6 33 52 -8.2 17.3
01:45 1016 30 845 24.95 0.2 32.3 52 -8.7 16.4
01:50 1016 30 845 24.95 0.6 33.1 51 -8.4 16.9
01:55 1016 30 845 24.95 1 33.7 50 -8.2 17.2
02:00 1016 30 845 24.95 1 33.9 51 -8.1 17.4
02:05 1016 30 845 24.95 1 33.8 52 -7.8 18
02:10 1016 30 845 24.95 0.7 33.2 54 -7.6 18.4
02:15 1016 30 845 24.95 0.5 32.9 55 -7.5 18.6
02:20 1016 30 845 24.95 0.3 32.6 56 -7.5 18.4
02:25 1016 30 845 24.95 0.3 32.5 55 -7.6 18.3
02:30 1016 30 845 24.95 0.5 32.8 54 -7.8 17.9
02:35 1016 30 845 24.95 0.9 33.6 52 -7.8 17.9
02:40 1016 30 845 24.95 0.9 33.6 52 -7.9 17.9
02:45 1016 30 845 24.95 0.8 33.4 52 -8 17.6
02:50 1016 30 845 24.95 0.8 33.4 53 -7.8 18
02:55 1016 30 845 24.95 0.6 33.1 53 -7.9 17.8
03:00 1016 30 845 24.95 0.7 33.3 53 -7.8 18
03:05 1016 30 845 24.95 0.8 33.5 52 -8 17.6
03:10 1016 30 845 24.95 0.9 33.7 52 -7.9 17.9
03:15 1016 30 845 24.95 0.7 33.3 54 -7.6 18.3
03:20 1016 30 845 24.95 0.6 33.1 54 -7.6 18.2
03:25 1016 30 845 24.95 0.6 33.2 54 -7.7 18.2
03:30 1016 30 845 24.95 0.7 33.3 53 -7.7 18.2
03:35 1016 30 845 24.95 1 33.8 51 -8.1 17.4
03:40 1016 30 845 24.95 1.3 34.4 51 -7.6 18.2
03:45 1016 30 845 24.95 1.5 34.7 52 -7.3 18.9
03:50 1016 30 845 24.95 1.6 34.9 52 -7.2 19
03:55 1016 30 845 24.95 1.6 34.9 53 -6.9 19.5
04:00 1016 30 845 24.95 1.5 34.7 54 -6.8 19.8
04:05 1016 30 845 24.95 1.4 34.5 57 -6.3 20.7
04:10 1016 30 845 24.95 1.2 34.1 57 -6.4 20.5
04:15 1016 30 845 24.95 1.2 34.2 58 -6.2 20.9
04:20 1016 30 845 24.95 1.2 34.1 57 -6.3 20.6
04:25 1016 30 846 24.98 1.4 34.6 55 -6.6 20.1
04:30 1016 30 846 24.98 1.7 35.1 55 -6.4 20.5
04:35 1017 30.03 846 24.98 1.8 35.2 55 -6.3 20.7
04:40 1017 30.03 846 24.98 1.8 35.3 55 -6.3 20.6
04:45 1017 30.03 846 24.98 2 35.6 56 -6 21.3
04:50 1017 30.03 846 24.98 2.2 35.9 58 -5.4 22.4
04:55 1017 30.03 846 24.98 2.2 36 61 -4.6 23.7
05:00 1017 30.03 846 24.98 2 35.7 68 -3.2 26.2
05:05 1017 30.03 846 24.98 1.8 35.3 71 -2.9 26.8
05:10 1017 30.03 846 24.98 1.5 34.6 78 -1.9 28.6
05:15 1017 30.03 846 24.98 1 33.8 82 -1.7 28.9
05:20 1017 30.03 846 24.98 0.8 33.4 84 -1.7 29
05:25 1017 30.03 846 24.98 0.5 33 87 -1.4 29.4
05:30 1017 30.03 846 24.98 0.3 32.5 88 -1.5 29.4
05:35 1017 30.03 846 24.98 -0 31.9 91 -1.4 29.5
05:40 1017 30.03 846 24.98 -0.3 31.5 93 -1.3 29.7
05:45 1017 30.03 846 24.98 -0.4 31.3 95 -1.2 29.9
05:50 1017 30.03 846 24.98 -0.4 31.2 95 -1.2 29.8
05:55 1017 30.03 846 24.98 -0.6 31 95 -1.3 29.7
06:00 1017 30.03 846 24.98 -0.6 30.9 95 -1.4 29.5
06:05 1017 30.03 846 24.98 -0.6 30.9 94 -1.4 29.4
06:10 1017 30.03 846 24.98 -0.6 31 94 -1.4 29.5
06:15 1017 30.03 846 24.98 -0.5 31 95 -1.2 29.8
06:20 1017 30.03 846 24.98 -0.6 30.9 96 -1.2 29.8
06:25 1017 30.03 846 24.98 -0.5 31.1 97 -1 30.2
06:30 1017 30.03 846 24.98 -0.4 31.3 96 -1 30.3
06:35 1017 30.03 846 24.98 -0.4 31.3 97 -0.8 30.6
06:40 1017 30.03 846 24.98 -0.2 31.7 97 -0.6 30.9
06:45 1017 30.03 846 24.98 0.2 32.3 96 -0.3 31.4
06:50 1017 30.03 846 24.98 0.4 32.7 96 -0.2 31.6
06:55 1017 30.03 846 24.98 0.6 33 94 -0.2 31.6
07:00 1017 30.03 846 24.98 0.3 32.5 95 -0.4 31.3
07:05 1017 30.03 846 24.98 0.2 32.4 95 -0.5 31.1
07:10 1017 30.03 846 24.98 0.2 32.4 94 -0.7 30.8
07:15 1017 30.03 846 24.98 0.3 32.5 94 -0.6 31
07:20 1017 30.03 846 24.98 -0.1 31.8 96 -0.7 30.7
07:25 1017 30.03 846 24.98 -0 32 94 -0.8 30.6
07:30 1017 30.03 846 24.98 0.4 32.8 93 -0.6 30.8
07:35 1017 30.03 846 24.98 0.7 33.3 90 -0.7 30.8
07:40 1017 30.03 846 24.98 1 33.8 84 -1.4 29.6
07:45 1017 30.03 846 24.98 1.4 34.5 83 -1.3 29.7
07:50 1017 30.03 846 24.98 1.6 34.9 81 -1.3 29.7
07:55 1017 30.03 847 25.01 1.7 35.1 80 -1.3 29.7
08:00 1017 30.03 847 25.01 1.9 35.5 79 -1.4 29.5
08:05 1017 30.03 847 25.01 2 35.5 79 -1.4 29.6
08:10 1017 30.03 847 25.01 2.1 35.7 81 -0.9 30.4
08:15 1017 30.03 847 25.01 2 35.7 81 -0.9 30.4
08:20 1017 30.03 847 25.01 2 35.6 77 -1.7 29
08:25 1017 30.03 847 25.01 2.1 35.8 75 -1.9 28.6
08:30 1017 30.03 847 25.01 2.2 36 74 -1.9 28.6
08:35 1017 30.03 847 25.01 2.2 36 73 -2.1 28.3
08:40 1017 30.03 847 25.01 2.3 36.2 73 -2 28.4
08:45 1017 30.03 847 25.01 2.3 36.2 72 -2.2 28.1
08:50 1018 30.06 847 25.01 2.4 36.3 72 -2.2 28
08:55 1018 30.06 847 25.01 2.5 36.5 71 -2.1 28.1
09:00 1018 30.06 847 25.01 2.7 36.9 70 -2.2 28.1
09:05 1018 30.06 847 25.01 2.8 37.1 67 -2.7 27.2
09:10 1018 30.06 847 25.01 3 37.4 67 -2.6 27.3
09:15 1018 30.06 847 25.01 3.1 37.5 67 -2.5 27.5
09:20 1018 30.06 847 25.01 3.1 37.7 67 -2.4 27.8
09:25 1018 30.06 847 25.01 3.3 37.9 65 -2.6 27.3
09:30 1018 30.06 847 25.01 3.5 38.3 63 -2.8 26.9
09:35 1018 30.06 847 25.01 3.5 38.3 65 -2.5 27.5
09:40 1018 30.06 847 25.01 3.5 38.3 65 -2.4 27.7
09:45 1018 30.06 847 25.01 3.6 38.6 61 -3.2 26.2
09:50 1018 30.06 847 25.01 3.7 38.6 62 -3 26.6
09:55 1018 30.06 847 25.01 3.8 38.9 62 -2.8 26.9
10:00 1018 30.06 847 25.01 4 39.3 57 -3.6 25.5
10:05 1018 30.06 847 25.01 4 39.2 60 -3.1 26.4
10:10 1018 30.06 847 25.01 4.1 39.4 61 -2.7 27.2
10:15 1018 30.06 847 25.01 4.8 40.6 55 -3.4 25.9
10:20 1018 30.06 847 25.01 5.1 41.3 55 -3.2 26.3
10:25 1018 30.06 847 25.01 5.1 41.3 59 -2.2 28.1
10:30 1018 30.06 847 25.01 5.1 41.1 58 -2.5 27.6
10:35 1018 30.06 847 25.01 4.8 40.6 57 -2.9 26.8
10:40 1018 30.06 847 25.01 4.9 40.9 56 -3.1 26.4
10:45 1018 30.06 847 25.01 5.4 41.7 57 -2.5 27.5
10:50 1018 30.06 847 25.01 5.5 42 56 -2.6 27.3
10:55 1018 30.06 847 25.01 5.1 41.2 58 -2.4 27.7
11:00 1018 30.06 847 25.01 4.9 40.8 55 -3.3 26
11:05 1018 30.06 847 25.01 4.8 40.6 54 -3.9 25.1
11:10 1018 30.06 847 25.01 4.9 40.8 56 -3.2 26.3
11:15 1018 30.06 847 25.01 5.4 41.8 53 -3.4 25.8
11:20 1018 30.06 847 25.01 5.5 41.9 54 -3.1 26.4
11:25 1018 30.06 847 25.01 5.8 42.4 53 -3.2 26.3
11:30 1018 30.06 847 25.01 5.8 42.4 53 -3.2 26.3
11:35 1018 30.06 847 25.01 6.1 42.9 49 -3.8 25.1
11:40 1017 30.03 847 25.01 5.9 42.7 52 -3.1 26.3
11:45 1017 30.03 847 25.01 5.9 42.7 48 -4.2 24.5
11:50 1017 30.03 847 25.01 6.2 43.1 44 -5 22.9
11:55 1017 30.03 847 25.01 6.4 43.5 46 -4.3 24.2
12:00 1017 30.03 846 24.98 6.4 43.5 48 -3.9 25
12:05 1017 30.03 846 24.98 6.4 43.6 51 -2.9 26.8
12:10 1017 30.03 846 24.98 5.5 41.8 51 -3.9 24.9
12:15 1017 30.03 846 24.98 5.5 41.8 47 -4.8 23.3
12:20 1017 30.03 846 24.98 5.9 42.5 49 -4 24.7
12:25 1017 30.03 846 24.98 5.4 41.8 48 -4.6 23.7
12:30 1017 30.03 846 24.98 5.4 41.7 49 -4.6 23.8
12:35 1017 30.03 846 24.98 5.8 42.4 49 -4.1 24.7
12:40 1017 30.03 846 24.98 5.7 42.3 50 -4 24.8
12:45 1017 30.03 846 24.98 5.9 42.7 47 -4.6 23.8
12:50 1016 30 846 24.98 6.3 43.3 42 -5.7 21.8
12:55 1016 30 846 24.98 6.9 44.4 41 -5.6 22
13:00 1016 30 846 24.98 7.3 45.1 40 -5.6 22
13:05 1016 30 845 24.95 8 46.5 38 -5.4 22.2
13:10 1016 30 845 24.95 8.5 47.3 34 -6.3 20.7
13:15 1016 30 845 24.95 8 46.4 35 -6.4 20.5
13:20 1016 30 845 24.95 8.7 47.6 34 -6.3 20.6
13:25 1016 30 845 24.95 8.8 47.9 33 -6.6 20.1
13:30 1016 30 845 24.95 8.5 47.3 34 -6.5 20.2
13:35 1016 30 845 24.95 8 46.4 35 -6.6 20.1
13:40 1016 30 845 24.95 8.1 46.5 34 -6.8 19.7
13:45 1016 30 845 24.95 7.7 45.9 35 -6.8 19.7
13:50 1016 30 845 24.95 8.3 46.9 33 -6.9 19.6
13:55 1016 30 845 24.95 8.8 47.9 32 -6.8 19.7
14:00 1016 30 845 24.95 9 48.1 34 -6.2 20.8
14:05 1016 30 845 24.95 8.7 47.6 33 -6.8 19.8
14:10 1016 30 845 24.95 8.3 46.9 33 -6.9 19.5
14:15 1016 30 845 24.95 8.6 47.5 33 -6.8 19.8
14:20 1016 30 845 24.95 9 48.1 32 -6.6 20
14:25 1015 29.97 845 24.95 9.2 48.5 33 -6.2 20.8
14:30 1015 29.97 845 24.95 8.8 47.8 33 -6.6 20.2
14:35 1015 29.97 845 24.95 9 48.1 33 -6.4 20.5
14:40 1015 29.97 845 24.95 9.1 48.3 33 -6.4 20.4
14:45 1015 29.97 845 24.95 8.8 47.9 31 -7.2 19
14:50 1015 29.97 844 24.92 8.5 47.3 32 -7.1 19.3
14:55 1015 29.97 844 24.92 8.2 46.8 33 -7.1 19.1
15:00 1015 29.97 844 24.92 8.9 48 31 -7.4 18.8
15:05 1015 29.97 844 24.92 8.6 47.5 31 -7.4 18.7
15:10 1015 29.97 844 24.92 9.2 48.5 30 -7.3 18.8
15:15 1015 29.97 844 24.92 9.3 48.8 30 -7.2 19
15:20 1015 29.97 844 24.92 9 48.2 30 -7.6 18.3
15:25 1015 29.97 844 24.92 8.7 47.6 31 -7.5 18.5
15:30 1015 29.97 844 24.92 8.5 47.2 31 -7.5 18.5
15:35 1015 29.97 844 24.92 8.4 47.2 31 -7.8 18
15:40 1015 29.97 844 24.92 8.6 47.5 31 -7.6 18.3
15:45 1015 29.97 844 24.92 8.9 48.1 31 -7.1 19.2
15:50 1015 29.97 844 24.92 8.4 47 30 -8.1 17.5
15:55 1015 29.97 844 24.92 8.2 46.8 32 -7.5 18.5
16:00 1015 29.97 844 24.92 8.4 47.1 32 -7.5 18.4
16:05 1015 29.97 844 24.92 8.6 47.5 32 -7 19.3
16:10 1015 29.97 844 24.92 8.5 47.2 32 -7.1 19.1
16:15 1015 29.97 844 24.92 8.8 47.8 31 -7.3 18.9
16:20 1015 29.97 844 24.92 9 48.1 32 -6.9 19.6
16:25 1015 29.97 844 24.92 8.8 47.9 32 -7.1 19.3
16:30 1015 29.97 844 24.92 8.5 47.3 32 -7.1 19.2
16:35 1015 29.97 844 24.92 8.3 47 33 -7.1 19.1
16:40 1015 29.97 844 24.92 8.2 46.8 33 -7.2 19
16:45 1015 29.97 844 24.92 8.4 47.1 33 -6.9 19.5
16:50 1015 29.97 844 24.92 8.9 48 31 -7.2 19
16:55 1015 29.97 844 24.92 8.8 47.9 32 -7 19.3
17:00 1015 29.97 844 24.92 9.1 48.5 30 -7.4 18.8
17:05 1015 29.97 844 24.92 8.8 47.9 31 -7.5 18.6
17:10 1015 29.97 844 24.92 9 48.1 29 -7.9 17.8
17:15 1015 29.97 844 24.92 9.3 48.7 29 -7.9 17.7
17:20 1015 29.97 844 24.92 9.2 48.6 30 -7.4 18.7
17:25 1015 29.97 844 24.92 8.5 47.3 32 -7.5 18.6
17:30 1015 29.97 844 24.92 8.1 46.6 31 -8.1 17.4
17:35 1015 29.97 844 24.92 8 46.4 31 -8.2 17.3
17:40 1015 29.97 844 24.92 7.8 46 32 -8.1 17.5
17:45 1015 29.97 844 24.92 7.6 45.7 32 -8.2 17.2
17:50 1015 29.97 844 24.92 7.6 45.6 32 -8.1 17.4
17:55 1015 29.97 844 24.92 7.7 45.9 32 -8 17.5
18:00 1015 29.97 844 24.92 7.4 45.2 33 -8 17.7
18:05 1015 29.97 844 24.92 6.9 44.5 34 -7.9 17.9
18:10 1015 29.97 844 24.92 6.6 43.9 34 -8 17.5
18:15 1015 29.97 844 24.92 6.6 43.9 34 -8.2 17.3
18:20 1015 29.97 844 24.92 6.5 43.8 34 -8.2 17.3
18:25 1015 29.97 844 24.92 6.5 43.6 35 -8 17.6
18:30 1015 29.97 844 24.92 6.3 43.3 35 -8.3 17.1
18:35 1015 29.97 844 24.92 6.4 43.5 33 -8.7 16.4
18:40 1015 29.97 844 24.92 6.5 43.7 34 -8.2 17.2
18:45 1015 29.97 844 24.92 5.7 42.2 40 -7 19.3
18:50 1015 29.97 844 24.92 5.3 41.6 38 -7.9 17.7
18:55 1015 29.97 844 24.92 5.3 41.5 40 -7.4 18.7
19:00 1015 29.97 844 24.92 5.1 41.1 40 -7.5 18.5
19:05 1015 29.97 844 24.92 5 41 40 -7.6 18.4
19:10 1015 29.97 844 24.92 5.2 41.4 39 -7.6 18.3
19:15 1015 29.97 844 24.92 5.3 41.6 38 -7.9 17.8
19:20 1015 29.97 844 24.92 5.3 41.6 41 -6.9 19.5
19:25 1015 29.97 844 24.92 5.1 41.2 40 -7.4 18.7
19:30 1015 29.97 844 24.92 4.7 40.5 42 -7.1 19.2
19:35 1015 29.97 844 24.92 4.6 40.3 41 -7.6 18.4
19:40 1015 29.97 844 24.92 5 40.9 40 -7.5 18.6
19:45 1015 29.97 844 24.92 5.1 41.2 41 -7.2 19
19:50 1015 29.97 844 24.92 5 40.9 41 -7.3 18.9
19:55 1015 29.97 844 24.92 4.9 40.9 42 -7 19.4
20:00 1015 29.97 844 24.92 4.7 40.5 43 -6.7 19.9
20:05 1015 29.97 844 24.92 3.8 38.9 49 -6.1 21.1
20:10 1015 29.97 844 24.92 3.4 38.1 51 -5.9 21.4
20:15 1015 29.97 844 24.92 2.9 37.2 54 -5.5 22.2
20:20 1015 29.97 844 24.92 2.3 36.2 55 -5.8 21.6
20:25 1015 29.97 844 24.92 2.6 36.7 51 -6.5 20.3
20:30 1015 29.97 844 24.92 3.2 37.7 50 -6.4 20.5
20:35 1015 29.97 844 24.92 3.2 37.8 50 -6.2 20.8
20:40 1015 29.97 844 24.92 3.2 37.8 49 -6.4 20.5
20:45 1015 29.97 844 24.92 3 37.5 51 -6.1 21
20:50 1015 29.97 844 24.92 2.7 36.8 52 -6.3 20.6
20:55 1015 29.97 844 24.92 2.5 36.5 53 -6.2 20.9
21:00 1015 29.97 844 24.92 2.2 36 55 -6 21.2
21:05 1015 29.97 844 24.92 1.9 35.4 55 -6.2 20.8
21:10 1015 29.97 844 24.92 1.9 35.4 56 -6.1 21.1
21:15 1015 29.97 844 24.92 1.6 34.8 56 -6.2 20.8
21:20 1015 29.97 844 24.92 1.5 34.7 58 -5.8 21.5
21:25 1015 29.97 844 24.92 1.2 34.2 59 -5.9 21.4
21:30 1015 29.97 845 24.95 1.2 34.2 59 -5.8 21.5
21:35 1015 29.97 845 24.95 1 33.9 58 -6.2 20.8
21:40 1015 29.97 845 24.95 1 33.8 59 -6.2 20.9
21:45 1015 29.97 845 24.95 1.3 34.3 56 -6.6 20
21:50 1015 29.97 845 24.95 2 35.6 51 -7.1 19.2
21:55 1015 29.97 845 24.95 2.6 36.6 51 -6.7 20
22:00 1015 29.97 845 24.95 2.4 36.4 53 -6.3 20.7
22:05 1016 30 845 24.95 2 35.7 54 -6.3 20.6
22:10 1016 30 845 24.95 1.9 35.4 55 -6.3 20.7
22:15 1016 30 845 24.95 1.9 35.3 54 -6.4 20.4
22:20 1016 30 845 24.95 1.5 34.8 56 -6.2 20.8
22:25 1016 30 845 24.95 1.2 34.2 59 -5.9 21.4
22:30 1016 30 845 24.95 1.1 34 58 -6.2 20.9
22:35 1016 30 845 24.95 1.3 34.4 57 -6.3 20.6
22:40 1016 30 845 24.95 1.3 34.3 56 -6.4 20.4
22:45 1016 30 845 24.95 1.2 34.2 57 -6.4 20.5
22:50 1016 30 845 24.95 1 33.8 59 -6.2 20.9
22:55 1016 30 845 24.95 0.8 33.4 59 -6.4 20.6
23:00 1016 30 845 24.95 0.4 32.7 60 -6.5 20.2
23:05 1016 30 845 24.95 0.2 32.4 60 -6.7 19.9
23:10 1016 30 845 24.95 0.3 32.5 60 -6.7 20
23:15 1016 30 845 24.95 0.2 32.4 59 -6.8 19.8
23:20 1016 30 845 24.95 0.1 32.2 61 -6.6 20
23:25 1016 30 845 24.95 -0 32 60 -6.8 19.8
23:30 1016 30 845 24.95 0 32 61 -6.5 20.2
23:35 1016 30 845 24.95 -0.1 31.9 62 -6.4 20.4
23:40 1016 30 845 24.95 -0.3 31.5 64 -6.3 20.7
23:45 1016 30 845 24.95 -0.8 30.6 66 -6.3 20.7
23:50 1016 30 845 24.95 -0.8 30.5 66 -6.5 20.4
23:55 1016 30 845 24.95 -0.4 31.2 62 -6.9 19.6
24:00 1016 30 845 24.95 0.2 32.4 59 -7 19.5